Time;durP1;ratioP1;P1;durP2;ratioP2;P2;SDS_P1;SDS_P2;PMS_P1;PMS_P2;Temp;Humidity;BMP_temperature;BMP_pressure;BME280_temperature;BME280_humidity;BME280_pressure;Samples;Min_cycle;Max_cycle;Signal;HPM_P1;HPM_P2
2023/04/23 00:00:40;;;;;;;22.70;13.80;;;;;;;;;;137575;1273;22091;-81
2023/04/23 00:04:03;;;;;;;39.70;13.70;;;;;;;;;;137626;1273;22164;-81
2023/04/23 00:07:05;;;;;;;23.00;14.80;;;;;;;;;;137626;1273;22124;-81
2023/04/23 00:10:10;;;;;;;25.40;13.80;;;;;;;;;;137642;1273;22233;-81
2023/04/23 00:13:13;;;;;;;27.80;14.40;;;;;;;;;;137614;1273;22081;-81
2023/04/23 00:16:15;;;;;;;22.60;13.20;;;;;;;;;;137618;1273;22043;-80
2023/04/23 00:23:11;;;;;;;25.60;15.00;;;;;;;;;;133046;1310;545195;-80
2023/04/23 00:26:12;;;;;;;26.70;15.60;;;;;;;;;;136300;1279;22345;-82
2023/04/23 00:29:14;;;;;;;22.30;14.60;;;;;;;;;;136487;1279;22539;-81
2023/04/23 00:32:15;;;;;;;25.90;14.70;;;;;;;;;;136894;1277;22624;-81
2023/04/23 00:35:17;;;;;;;24.40;14.20;;;;;;;;;;136485;1275;142416;-81
2023/04/23 00:38:19;;;;;;;24.90;14.60;;;;;;;;;;136694;1275;22738;-80
2023/04/23 00:41:21;;;;;;;25.70;14.90;;;;;;;;;;137432;1271;22376;-84
2023/04/23 00:44:22;;;;;;;24.80;15.90;;;;;;;;;;136773;1275;22191;-81
2023/04/23 00:47:23;;;;;;;25.70;15.30;;;;;;;;;;136770;1275;22576;-81
2023/04/23 00:50:24;;;;;;;22.60;13.80;;;;;;;;;;137337;1275;22700;-82
2023/04/23 00:53:25;;;;;;;22.80;14.30;;;;;;;;;;136951;1275;22218;-81
2023/04/23 00:56:26;;;;;;;22.60;14.00;;;;;;;;;;136761;1275;22235;-83
2023/04/23 00:59:27;;;;;;;23.70;14.10;;;;;;;;;;137287;1275;22536;-83
2023/04/23 01:02:28;;;;;;;24.50;14.40;;;;;;;;;;136980;1275;22557;-82
2023/04/23 01:05:29;;;;;;;23.30;15.00;;;;;;;;;;136865;1271;22551;-83
2023/04/23 01:08:31;;;;;;;24.40;15.10;;;;;;;;;;136959;1275;23459;-84
2023/04/23 01:11:32;;;;;;;22.00;13.80;;;;;;;;;;137130;1275;22982;-82
2023/04/23 01:14:33;;;;;;;21.30;14.60;;;;;;;;;;136793;1275;22363;-83
2023/04/23 01:17:34;;;;;;;26.50;14.10;;;;;;;;;;136839;1275;22980;-84
2023/04/23 01:20:36;;;;;;;23.30;14.20;;;;;;;;;;137329;1271;22678;-80
2023/04/23 01:23:37;;;;;;;28.20;15.20;;;;;;;;;;137469;1275;22081;-83
2023/04/23 01:26:38;;;;;;;24.80;13.40;;;;;;;;;;137459;1275;22049;-83
2023/04/23 01:29:39;;;;;;;24.40;14.20;;;;;;;;;;137503;1275;22238;-83
2023/04/23 01:32:40;;;;;;;24.60;13.20;;;;;;;;;;137479;1275;22074;-83
2023/04/23 01:35:41;;;;;;;21.80;14.00;;;;;;;;;;137487;1275;22053;-83
2023/04/23 01:38:43;;;;;;;21.60;13.50;;;;;;;;;;137474;1275;22075;-84
2023/04/23 01:41:44;;;;;;;19.10;14.10;;;;;;;;;;137467;1275;22070;-83
2023/04/23 01:44:45;;;;;;;21.60;13.40;;;;;;;;;;137433;1275;22235;-83
2023/04/23 01:47:46;;;;;;;23.90;15.10;;;;;;;;;;137450;1275;22638;-83
2023/04/23 01:50:47;;;;;;;19.50;13.80;;;;;;;;;;137436;1275;22117;-82
2023/04/23 01:53:48;;;;;;;22.40;13.70;;;;;;;;;;137445;1275;22979;-83
2023/04/23 01:56:53;;;;;;;22.60;13.90;;;;;;;;;;137443;1275;22086;-83
2023/04/23 01:59:54;;;;;;;21.60;14.20;;;;;;;;;;137433;1275;22125;-83
2023/04/23 02:02:55;;;;;;;21.40;13.50;;;;;;;;;;137489;1275;22265;-83
2023/04/23 02:05:56;;;;;;;26.60;14.70;;;;;;;;;;137527;1275;22185;-84
2023/04/23 02:08:57;;;;;;;24.50;14.00;;;;;;;;;;137510;1275;22201;-83
2023/04/23 02:11:59;;;;;;;18.60;13.20;;;;;;;;;;137437;1275;22188;-83
2023/04/23 02:15:00;;;;;;;21.10;13.20;;;;;;;;;;137447;1275;22222;-83
2023/04/23 02:18:01;;;;;;;20.40;13.20;;;;;;;;;;137487;1275;22265;-83
2023/04/23 02:21:03;;;;;;;24.10;14.60;;;;;;;;;;137515;1275;22065;-83
2023/04/23 02:24:04;;;;;;;20.40;13.30;;;;;;;;;;137490;1275;22067;-83
2023/04/23 02:27:06;;;;;;;22.90;13.50;;;;;;;;;;137440;1275;22210;-83
2023/04/23 02:30:07;;;;;;;18.30;12.50;;;;;;;;;;137447;1275;22216;-83
2023/04/23 02:33:08;;;;;;;21.20;13.50;;;;;;;;;;137646;1273;22646;-83
2023/04/23 02:36:11;;;;;;;19.10;13.60;;;;;;;;;;137628;1273;22131;-83
2023/04/23 02:39:12;;;;;;;17.50;12.40;;;;;;;;;;137580;1273;22017;-83
2023/04/23 02:42:13;;;;;;;18.00;12.80;;;;;;;;;;137650;1273;22209;-83
2023/04/23 02:45:14;;;;;;;19.30;13.40;;;;;;;;;;137636;1273;22606;-83
2023/04/23 02:48:15;;;;;;;18.90;12.90;;;;;;;;;;137630;1259;22081;-83
2023/04/23 02:51:16;;;;;;;20.70;13.20;;;;;;;;;;137647;1273;22355;-83
2023/04/23 02:54:17;;;;;;;19.70;13.00;;;;;;;;;;137609;1273;22252;-84
2023/04/23 02:57:19;;;;;;;20.40;12.70;;;;;;;;;;137621;1273;22585;-83
2023/04/23 03:00:20;;;;;;;34.00;14.30;;;;;;;;;;137623;1273;22125;-83
2023/04/23 03:03:25;;;;;;;18.50;12.90;;;;;;;;;;137606;1273;22202;-83
2023/04/23 03:06:26;;;;;;;;;;;;;;;;;;137625;1273;22313;-83
2023/04/23 03:09:27;;;;;;;18.40;12.30;;;;;;;;;;137630;1273;22103;-83
2023/04/23 03:12:28;;;;;;;20.40;13.90;;;;;;;;;;137637;1273;22175;-83
2023/04/23 03:15:29;;;;;;;21.40;13.10;;;;;;;;;;137609;1273;22082;-83
2023/04/23 03:18:30;;;;;;;19.20;13.50;;;;;;;;;;137647;1273;22262;-83
2023/04/23 03:21:32;;;;;;;21.80;13.50;;;;;;;;;;137671;1273;22042;-83
2023/04/23 03:24:33;;;;;;;21.00;12.90;;;;;;;;;;137651;1273;22062;-82
2023/04/23 03:27:34;;;;;;;24.20;14.10;;;;;;;;;;137584;1273;22069;-82
2023/04/23 03:30:35;;;;;;;27.10;15.60;;;;;;;;;;137591;1273;22117;-82
2023/04/23 03:33:36;;;;;;;23.70;12.80;;;;;;;;;;137613;1273;22924;-83
2023/04/23 03:36:37;;;;;;;24.10;13.20;;;;;;;;;;137670;1273;22230;-83
2023/04/23 03:39:39;;;;;;;20.70;12.90;;;;;;;;;;137615;1273;22293;-82
2023/04/23 03:42:40;;;;;;;22.50;13.40;;;;;;;;;;137626;1273;22628;-83
2023/04/23 03:45:41;;;;;;;22.30;14.30;;;;;;;;;;137658;1273;22518;-83
2023/04/23 03:48:42;;;;;;;20.30;12.50;;;;;;;;;;137593;1273;22584;-83
2023/04/23 03:51:43;;;;;;;20.30;13.60;;;;;;;;;;137644;1273;22594;-84
2023/04/23 03:54:44;;;;;;;20.90;12.80;;;;;;;;;;137650;1273;22050;-84
2023/04/23 03:57:45;;;;;;;19.30;12.70;;;;;;;;;;137589;1273;22637;-83
2023/04/23 04:00:46;;;;;;;23.80;13.60;;;;;;;;;;137652;1273;22103;-83
2023/04/23 04:03:47;;;;;;;17.80;12.10;;;;;;;;;;137633;1273;22138;-83
2023/04/23 04:06:49;;;;;;;20.70;12.90;;;;;;;;;;137609;1273;22207;-83
2023/04/23 04:09:50;;;;;;;23.60;12.90;;;;;;;;;;137633;1273;22581;-83
2023/04/23 04:12:51;;;;;;;23.80;12.20;;;;;;;;;;137656;1273;22060;-83
2023/04/23 04:15:52;;;;;;;23.00;13.20;;;;;;;;;;137665;1273;22137;-83
2023/04/23 04:18:53;;;;;;;21.40;13.60;;;;;;;;;;137638;1273;22174;-83
2023/04/23 04:21:55;;;;;;;22.40;13.60;;;;;;;;;;137627;1273;22037;-83
2023/04/23 04:24:56;;;;;;;22.00;13.10;;;;;;;;;;137674;1273;22641;-80
2023/04/23 04:27:57;;;;;;;16.80;12.80;;;;;;;;;;137652;1273;22060;-80
2023/04/23 04:30:59;;;;;;;18.00;13.30;;;;;;;;;;137666;1273;22114;-80
2023/04/23 04:34:00;;;;;;;20.30;13.20;;;;;;;;;;137631;1273;22268;-81
2023/04/23 04:37:01;;;;;;;19.60;12.40;;;;;;;;;;137636;1273;22175;-83
2023/04/23 04:40:03;;;;;;;92.50;18.10;;;;;;;;;;137699;1273;22097;-85
2023/04/23 04:43:05;;;;;;;37.20;13.90;;;;;;;;;;137692;1273;22336;-83
2023/04/23 04:46:06;;;;;;;31.20;13.00;;;;;;;;;;137640;1273;22275;-81
2023/04/23 04:49:07;;;;;;;258.80;23.70;;;;;;;;;;137622;1273;22163;-81
2023/04/23 04:52:09;;;;;;;27.60;13.10;;;;;;;;;;137622;1273;22074;-82
2023/04/23 04:55:10;;;;;;;61.80;14.40;;;;;;;;;;137678;1273;22057;-82
2023/04/23 04:58:11;;;;;;;31.50;13.10;;;;;;;;;;137662;1273;22118;-81
2023/04/23 05:01:12;;;;;;;27.30;11.90;;;;;;;;;;137636;1273;22412;-81
2023/04/23 05:04:13;;;;;;;20.70;12.10;;;;;;;;;;137687;1273;22075;-82
2023/04/23 05:07:14;;;;;;;19.50;12.30;;;;;;;;;;137644;1273;22316;-82
2023/04/23 05:10:16;;;;;;;65.50;17.80;;;;;;;;;;137625;1273;22147;-81
2023/04/23 05:13:17;;;;;;;61.60;15.40;;;;;;;;;;137668;1273;22260;-81
2023/04/23 05:16:18;;;;;;;39.20;12.90;;;;;;;;;;137689;1273;22096;-81
2023/04/23 05:19:19;;;;;;;55.70;12.80;;;;;;;;;;137697;1273;22222;-83
2023/04/23 05:22:21;;;;;;;731.40;66.80;;;;;;;;;;137672;1262;22297;-83
2023/04/23 05:25:22;;;;;;;439.30;37.60;;;;;;;;;;137668;1273;22176;-82
2023/04/23 05:28:23;;;;;;;273.50;27.80;;;;;;;;;;137649;1273;22230;-81
2023/04/23 05:31:24;;;;;;;160.20;19.50;;;;;;;;;;137682;1266;22319;-82
2023/04/23 05:34:28;;;;;;;86.60;15.80;;;;;;;;;;137661;1273;22112;-82
2023/04/23 05:37:29;;;;;;;27.90;12.50;;;;;;;;;;137662;1273;22574;-81
2023/04/23 05:40:30;;;;;;;39.80;12.60;;;;;;;;;;137639;1273;22062;-83
2023/04/23 05:43:31;;;;;;;21.00;12.40;;;;;;;;;;137657;1273;22540;-83
2023/04/23 05:46:33;;;;;;;74.50;14.20;;;;;;;;;;137648;1273;22204;-83
2023/04/23 05:49:34;;;;;;;22.80;11.70;;;;;;;;;;137642;1273;22194;-83
2023/04/23 05:52:36;;;;;;;18.90;11.90;;;;;;;;;;137646;1270;22313;-83
2023/04/23 05:55:40;;;;;;;15.20;11.00;;;;;;;;;;137670;1273;22074;-82
2023/04/23 05:58:41;;;;;;;;;;;;;;;;;;137679;1273;22299;-83
2023/04/23 06:01:47;;;;;;;33.50;12.50;;;;;;;;;;137635;1273;22126;-84
2023/04/23 06:04:48;;;;;;;15.60;11.20;;;;;;;;;;137672;1273;22053;-83
2023/04/23 06:07:49;;;;;;;20.20;12.00;;;;;;;;;;137667;1273;22207;-82
2023/04/23 06:10:50;;;;;;;19.00;11.70;;;;;;;;;;137705;1272;22059;-82
2023/04/23 06:13:51;;;;;;;15.90;12.30;;;;;;;;;;137674;1272;22472;-84
2023/04/23 06:16:53;;;;;;;17.40;11.10;;;;;;;;;;137697;1272;22688;-83
2023/04/23 06:19:54;;;;;;;16.30;11.20;;;;;;;;;;137685;1272;22358;-83
2023/04/23 06:22:55;;;;;;;19.70;12.30;;;;;;;;;;137692;1272;22223;-83
2023/04/23 06:25:57;;;;;;;365.70;34.60;;;;;;;;;;137674;1272;22293;-82
2023/04/23 06:28:58;;;;;;;27.40;12.40;;;;;;;;;;137721;1272;22034;-84
2023/04/23 06:32:00;;;;;;;25.20;11.80;;;;;;;;;;137683;1272;22661;-82
2023/04/23 06:35:01;;;;;;;20.70;12.10;;;;;;;;;;137682;1272;22080;-83
2023/04/23 06:38:02;;;;;;;17.00;11.50;;;;;;;;;;137710;1272;22083;-83
2023/04/23 06:41:03;;;;;;;15.00;10.70;;;;;;;;;;137657;1272;22146;-82
2023/04/23 06:44:05;;;;;;;17.10;11.30;;;;;;;;;;137676;1272;22076;-83
2023/04/23 06:47:06;;;;;;;17.10;11.10;;;;;;;;;;137733;1272;22271;-83
2023/04/23 06:50:10;;;;;;;15.00;10.80;;;;;;;;;;137697;1272;22169;-83
2023/04/23 06:53:12;;;;;;;18.60;11.20;;;;;;;;;;137735;1272;22148;-84
2023/04/23 06:56:13;;;;;;;51.60;13.70;;;;;;;;;;137684;1272;22504;-83
2023/04/23 06:59:15;;;;;;;17.40;10.70;;;;;;;;;;137710;1272;22032;-83
2023/04/23 07:02:16;;;;;;;14.70;9.70;;;;;;;;;;137672;1272;22574;-86
2023/04/23 07:05:18;;;;;;;16.60;11.60;;;;;;;;;;137664;1272;22158;-86
2023/04/23 07:08:19;;;;;;;14.10;10.30;;;;;;;;;;137640;1272;22230;-85
2023/04/23 07:11:24;;;;;;;18.40;10.20;;;;;;;;;;137663;1272;22276;-85
2023/04/23 07:14:25;;;;;;;15.10;10.10;;;;;;;;;;137687;1272;22121;-85
2023/04/23 07:17:32;;;;;;;12.00;10.40;;;;;;;;;;137721;1272;22211;-86
2023/04/23 07:20:36;;;;;;;15.00;10.80;;;;;;;;;;137684;1272;22135;-87
2023/04/23 07:23:37;;;;;;;10.80;9.50;;;;;;;;;;137678;1272;22251;-85
2023/04/23 07:26:39;;;;;;;12.00;9.70;;;;;;;;;;137725;1272;22134;-86
2023/04/23 07:29:40;;;;;;;28.80;10.10;;;;;;;;;;137737;1272;22091;-84
2023/04/23 07:32:41;;;;;;;13.60;9.60;;;;;;;;;;137681;1272;22133;-83
2023/04/23 07:35:43;;;;;;;14.40;10.30;;;;;;;;;;137728;1272;22056;-84
2023/04/23 07:38:44;;;;;;;112.10;18.00;;;;;;;;;;137706;1268;22357;-83
2023/04/23 07:41:45;;;;;;;13.20;9.40;;;;;;;;;;137718;1272;22149;-84
2023/04/23 07:44:46;;;;;;;35.70;11.10;;;;;;;;;;137712;1272;22101;-84
2023/04/23 07:47:49;;;;;;;15.00;9.30;;;;;;;;;;137667;1272;22058;-84
2023/04/23 07:50:53;;;;;;;16.50;9.80;;;;;;;;;;137712;1272;22290;-85
2023/04/23 07:53:55;;;;;;;21.80;9.90;;;;;;;;;;137683;1268;22205;-83
2023/04/23 07:56:56;;;;;;;11.60;8.70;;;;;;;;;;137708;1272;22343;-83
2023/04/23 07:59:58;;;;;;;17.40;9.50;;;;;;;;;;137730;1272;22052;-83
2023/04/23 08:02:59;;;;;;;12.10;8.90;;;;;;;;;;137716;1272;22341;-83
2023/04/23 08:06:00;;;;;;;15.10;9.20;;;;;;;;;;137708;1272;22240;-83
2023/04/23 08:09:05;;;;;;;15.20;9.60;;;;;;;;;;137716;1272;22783;-82
2023/04/23 08:12:06;;;;;;;13.00;8.00;;;;;;;;;;137682;1272;22077;-83
2023/04/23 08:15:07;;;;;;;13.90;8.80;;;;;;;;;;137726;1272;22077;-83
2023/04/23 08:18:08;;;;;;;13.00;8.00;;;;;;;;;;137690;1272;22237;-83
2023/04/23 08:21:11;;;;;;;11.20;8.20;;;;;;;;;;137699;1272;22101;-84
2023/04/23 08:24:14;;;;;;;10.10;7.90;;;;;;;;;;137646;1272;22104;-83
2023/04/23 08:27:15;;;;;;;13.90;7.70;;;;;;;;;;137691;1272;22353;-83
2023/04/23 08:30:17;;;;;;;12.30;8.30;;;;;;;;;;137705;1271;22241;-83
2023/04/23 08:33:18;;;;;;;11.10;7.60;;;;;;;;;;137710;1272;22132;-83
2023/04/23 08:36:20;;;;;;;9.40;7.50;;;;;;;;;;137735;1272;22056;-84
2023/04/23 08:39:21;;;;;;;12.80;7.70;;;;;;;;;;137696;1272;22296;-83
2023/04/23 08:42:24;;;;;;;7.70;6.90;;;;;;;;;;137709;1272;22108;-83
2023/04/23 08:45:25;;;;;;;9.10;7.20;;;;;;;;;;137705;1272;22081;-82
2023/04/23 08:48:27;;;;;;;8.70;7.70;;;;;;;;;;137669;1272;22233;-83
2023/04/23 08:51:28;;;;;;;9.50;7.70;;;;;;;;;;137745;1272;22089;-83
2023/04/23 08:54:29;;;;;;;11.50;7.80;;;;;;;;;;137675;1272;22128;-83
2023/04/23 08:57:30;;;;;;;14.00;7.20;;;;;;;;;;137709;1267;22087;-83
2023/04/23 09:00:32;;;;;;;12.00;7.30;;;;;;;;;;137707;1272;22668;-83
2023/04/23 09:03:33;;;;;;;16.90;8.30;;;;;;;;;;137663;1272;22606;-83
2023/04/23 09:06:34;;;;;;;110.30;13.60;;;;;;;;;;137701;1272;22186;-83
2023/04/23 09:09:35;;;;;;;12.80;7.60;;;;;;;;;;137684;1272;22268;-83
2023/04/23 09:12:36;;;;;;;56.90;10.80;;;;;;;;;;137662;1272;22073;-84
2023/04/23 09:15:42;;;;;;;26.80;8.80;;;;;;;;;;137686;1272;22149;-83
2023/04/23 09:18:43;;;;;;;61.70;10.90;;;;;;;;;;137674;1272;22642;-83
2023/04/23 09:21:44;;;;;;;29.70;7.80;;;;;;;;;;137694;1260;22060;-83
2023/04/23 09:24:46;;;;;;;8.40;6.30;;;;;;;;;;137640;1272;22230;-83
2023/04/23 09:27:47;;;;;;;47.00;8.40;;;;;;;;;;137698;1272;22117;-83
2023/04/23 09:30:48;;;;;;;14.70;6.60;;;;;;;;;;137689;1272;22348;-83
2023/04/23 09:33:49;;;;;;;18.30;7.60;;;;;;;;;;137701;1272;22079;-84
2023/04/23 09:36:52;;;;;;;16.60;6.90;;;;;;;;;;137629;1272;22146;-82
2023/04/23 09:39:55;;;;;;;18.60;7.40;;;;;;;;;;137666;1272;22345;-84
2023/04/23 09:42:56;;;;;;;43.40;8.10;;;;;;;;;;137731;1272;22104;-84
2023/04/23 09:45:58;;;;;;;16.30;6.50;;;;;;;;;;137649;1272;22217;-83
2023/04/23 09:48:59;;;;;;;21.80;7.10;;;;;;;;;;137729;1272;22210;-82
2023/04/23 09:52:00;;;;;;;14.20;6.10;;;;;;;;;;137699;1272;22188;-84
2023/04/23 09:55:01;;;;;;;12.30;6.00;;;;;;;;;;137670;1272;22444;-83
2023/04/23 09:58:03;;;;;;;16.30;6.20;;;;;;;;;;137703;1272;22283;-83
2023/04/23 10:01:07;;;;;;;13.80;6.50;;;;;;;;;;137683;1272;22472;-83
2023/04/23 10:04:08;;;;;;;10.40;5.80;;;;;;;;;;137733;1272;22677;-83
2023/04/23 10:07:12;;;;;;;12.60;5.90;;;;;;;;;;137669;1272;22498;-83
2023/04/23 10:10:13;;;;;;;12.40;6.00;;;;;;;;;;137744;1272;22337;-83
2023/04/23 10:13:15;;;;;;;13.30;5.90;;;;;;;;;;137653;1272;22156;-83
2023/04/23 10:16:16;;;;;;;40.40;6.30;;;;;;;;;;137703;1272;22500;-83
2023/04/23 10:19:17;;;;;;;15.90;6.00;;;;;;;;;;137683;1272;22129;-83
2023/04/23 10:22:18;;;;;;;6.50;5.70;;;;;;;;;;137688;1272;22503;-83
2023/04/23 10:25:19;;;;;;;16.70;6.90;;;;;;;;;;137604;1272;22127;-83
2023/04/23 10:28:25;;;;;;;16.70;6.50;;;;;;;;;;137702;1272;22080;-84
2023/04/23 10:31:27;;;;;;;14.10;5.80;;;;;;;;;;137668;1272;22113;-82
2023/04/23 10:34:28;;;;;;;16.90;5.80;;;;;;;;;;137688;1272;22928;-84
2023/04/23 10:37:29;;;;;;;11.50;6.80;;;;;;;;;;137686;1272;22089;-84
2023/04/23 10:40:30;;;;;;;10.10;5.80;;;;;;;;;;137714;1272;22062;-83
2023/04/23 10:43:32;;;;;;;10.30;5.40;;;;;;;;;;137693;1272;22056;-84
2023/04/23 10:46:33;;;;;;;8.40;5.60;;;;;;;;;;137652;1264;22504;-83
2023/04/23 10:49:34;;;;;;;6.90;5.70;;;;;;;;;;137684;1272;22145;-83
2023/04/23 10:52:38;;;;;;;11.00;5.70;;;;;;;;;;137698;1272;22543;-82
2023/04/23 10:55:39;;;;;;;10.50;5.70;;;;;;;;;;137682;1272;22277;-83
2023/04/23 10:58:40;;;;;;;11.60;5.30;;;;;;;;;;137688;1272;22229;-83
2023/04/23 11:01:42;;;;;;;7.00;5.20;;;;;;;;;;137676;1272;22060;-82
2023/04/23 11:04:43;;;;;;;7.70;6.10;;;;;;;;;;137701;1272;22059;-84
2023/04/23 11:07:44;;;;;;;7.90;5.70;;;;;;;;;;137679;1272;22036;-83
2023/04/23 11:10:45;;;;;;;9.10;5.40;;;;;;;;;;137729;1272;22206;-83
2023/04/23 11:13:47;;;;;;;6.10;5.00;;;;;;;;;;137697;1269;22223;-83
2023/04/23 11:16:48;;;;;;;9.70;5.40;;;;;;;;;;137680;1272;22186;-82
2023/04/23 11:19:49;;;;;;;8.60;5.30;;;;;;;;;;137686;1272;22179;-83
2023/04/23 11:22:50;;;;;;;8.40;5.40;;;;;;;;;;137655;1272;22201;-84
2023/04/23 11:25:51;;;;;;;6.20;5.30;;;;;;;;;;137640;1272;22295;-83
2023/04/23 11:28:53;;;;;;;7.90;5.40;;;;;;;;;;137677;1272;22175;-83
2023/04/23 11:31:54;;;;;;;7.20;5.00;;;;;;;;;;137683;1272;22578;-83
2023/04/23 11:34:56;;;;;;;6.50;5.40;;;;;;;;;;137668;1272;22064;-83
2023/04/23 11:37:57;;;;;;;6.20;4.30;;;;;;;;;;137722;1272;22239;-82
2023/04/23 11:40:59;;;;;;;56.50;7.40;;;;;;;;;;137715;1272;22253;-84
2023/04/23 11:44:00;;;;;;;10.70;4.20;;;;;;;;;;137680;1272;22206;-83
2023/04/23 11:47:03;;;;;;;15.10;4.50;;;;;;;;;;137730;1267;22344;-86
2023/04/23 11:50:05;;;;;;;8.60;4.40;;;;;;;;;;137691;1272;22265;-85
2023/04/23 11:53:06;;;;;;;9.00;4.30;;;;;;;;;;137663;1272;22034;-84
2023/04/23 11:56:08;;;;;;;4.70;4.00;;;;;;;;;;137724;1272;22515;-85
2023/04/23 11:59:09;;;;;;;5.50;3.90;;;;;;;;;;137641;1272;22159;-85
2023/04/23 12:02:12;;;;;;;31.70;5.30;;;;;;;;;;137677;1272;22047;-85
2023/04/23 12:05:13;;;;;;;24.90;5.30;;;;;;;;;;137703;1272;22073;-84
2023/04/23 12:08:15;;;;;;;14.40;4.20;;;;;;;;;;137719;1272;22046;-85
2023/04/23 12:11:16;;;;;;;9.70;3.70;;;;;;;;;;137679;1272;22064;-85
2023/04/23 12:14:17;;;;;;;8.80;3.90;;;;;;;;;;137713;1272;22245;-85
2023/04/23 12:17:21;;;;;;;14.10;4.20;;;;;;;;;;137634;1272;22045;-84
2023/04/23 12:20:22;;;;;;;14.70;3.80;;;;;;;;;;137737;1266;22531;-85
2023/04/23 12:23:23;;;;;;;8.80;4.10;;;;;;;;;;137713;1272;22247;-83
2023/04/23 12:26:24;;;;;;;15.10;5.10;;;;;;;;;;137709;1272;22048;-85
2023/04/23 12:29:25;;;;;;;5.50;3.70;;;;;;;;;;137713;1272;22290;-85
2023/04/23 12:32:27;;;;;;;15.80;3.90;;;;;;;;;;137637;1272;22059;-84
2023/04/23 12:35:28;;;;;;;6.20;3.80;;;;;;;;;;137442;1267;335261;-84
2023/04/23 12:38:29;;;;;;;15.10;4.10;;;;;;;;;;137708;1267;22594;-83
2023/04/23 12:41:30;;;;;;;12.00;4.10;;;;;;;;;;137688;1272;22118;-85
2023/04/23 12:44:33;;;;;;;4.40;3.70;;;;;;;;;;137704;1272;22093;-84
2023/04/23 12:47:34;;;;;;;13.50;4.40;;;;;;;;;;137714;1272;22198;-85
2023/04/23 12:50:36;;;;;;;13.10;4.60;;;;;;;;;;137735;1272;22111;-85
2023/04/23 12:53:37;;;;;;;6.90;3.80;;;;;;;;;;137721;1272;22243;-85
2023/04/23 12:56:38;;;;;;;9.60;4.20;;;;;;;;;;137755;1272;22837;-86
2023/04/23 12:59:40;;;;;;;8.20;3.50;;;;;;;;;;137732;1272;22050;-84
2023/04/23 13:02:44;;;;;;;4.90;3.70;;;;;;;;;;137734;1272;22079;-83
2023/04/23 13:05:46;;;;;;;24.80;4.70;;;;;;;;;;137713;1272;22112;-84
2023/04/23 13:08:48;;;;;;;6.40;4.20;;;;;;;;;;137725;1272;22063;-84
2023/04/23 13:11:51;;;;;;;4.40;4.00;;;;;;;;;;137677;1272;22123;-83
2023/04/23 13:14:53;;;;;;;10.50;4.40;;;;;;;;;;137714;1272;22169;-85
2023/04/23 13:17:55;;;;;;;7.30;3.70;;;;;;;;;;137669;1272;22166;-85
2023/04/23 13:20:56;;;;;;;5.00;3.90;;;;;;;;;;137649;1272;22259;-83
2023/04/23 13:23:57;;;;;;;6.80;3.80;;;;;;;;;;137733;1272;22248;-82
2023/04/23 13:26:58;;;;;;;6.70;4.00;;;;;;;;;;137676;1272;22179;-80
2023/04/23 13:30:00;;;;;;;4.80;3.80;;;;;;;;;;137685;1272;22632;-83
2023/04/23 13:33:01;;;;;;;8.30;4.00;;;;;;;;;;137689;1270;22298;-83
2023/04/23 13:36:02;;;;;;;8.10;4.30;;;;;;;;;;137718;1272;22172;-83
2023/04/23 13:39:03;;;;;;;4.70;3.60;;;;;;;;;;137721;1272;22106;-83
2023/04/23 13:42:04;;;;;;;8.20;4.40;;;;;;;;;;137679;1272;22162;-83
2023/04/23 13:45:06;;;;;;;4.70;3.50;;;;;;;;;;137729;1272;22292;-84
2023/04/23 13:48:07;;;;;;;7.90;3.90;;;;;;;;;;137685;1272;22165;-83
2023/04/23 13:51:08;;;;;;;4.60;3.60;;;;;;;;;;137685;1272;22054;-83
2023/04/23 13:54:09;;;;;;;5.00;3.40;;;;;;;;;;137736;1272;22302;-84
2023/04/23 13:57:11;;;;;;;6.50;4.00;;;;;;;;;;137700;1272;22633;-85
2023/04/23 14:00:16;;;;;;;4.90;4.10;;;;;;;;;;137636;1272;22283;-85
2023/04/23 14:03:18;;;;;;;10.20;4.00;;;;;;;;;;137709;1272;22095;-84
2023/04/23 14:06:20;;;;;;;7.50;3.50;;;;;;;;;;137719;1272;22556;-84
2023/04/23 14:09:21;;;;;;;4.80;4.00;;;;;;;;;;137691;1269;22399;-84
2023/04/23 14:12:22;;;;;;;4.80;4.00;;;;;;;;;;137742;1272;22122;-84
2023/04/23 14:15:24;;;;;;;6.00;3.80;;;;;;;;;;137722;1272;22650;-84
2023/04/23 14:18:26;;;;;;;4.60;3.90;;;;;;;;;;137724;1272;22240;-84
2023/04/23 14:21:27;;;;;;;8.10;4.70;;;;;;;;;;137707;1272;22107;-84
2023/04/23 14:24:28;;;;;;;6.80;4.70;;;;;;;;;;137704;1270;22277;-84
2023/04/23 14:27:30;;;;;;;6.80;4.30;;;;;;;;;;137669;1272;22632;-83
2023/04/23 14:30:32;;;;;;;6.10;4.40;;;;;;;;;;137697;1272;22270;-83
2023/04/23 14:33:33;;;;;;;6.40;4.70;;;;;;;;;;137746;1272;22512;-84
2023/04/23 14:36:36;;;;;;;6.40;4.80;;;;;;;;;;137705;1272;22250;-85
2023/04/23 14:39:37;;;;;;;;;;;;;;;;;;137726;1272;22690;-84
2023/04/23 14:42:38;;;;;;;10.20;4.90;;;;;;;;;;137684;1272;22219;-83
2023/04/23 14:45:39;;;;;;;5.60;4.40;;;;;;;;;;137717;1272;22159;-84
2023/04/23 14:48:41;;;;;;;9.50;4.60;;;;;;;;;;137719;1272;22767;-84
2023/04/23 14:51:42;;;;;;;6.10;4.70;;;;;;;;;;137692;1272;22063;-86
2023/04/23 14:54:44;;;;;;;4.40;3.70;;;;;;;;;;137714;1272;22539;-85
2023/04/23 14:57:51;;;;;;;5.40;3.80;;;;;;;;;;137732;1272;22061;-85
2023/04/23 15:00:53;;;;;;;8.40;4.30;;;;;;;;;;137700;1272;22539;-86
2023/04/23 15:03:55;;;;;;;7.80;4.80;;;;;;;;;;137721;1272;22042;-87
2023/04/23 15:06:56;;;;;;;9.20;4.20;;;;;;;;;;137723;1272;22148;-85
2023/04/23 15:10:05;;;;;;;8.50;4.20;;;;;;;;;;137766;1272;22172;-86
2023/04/23 15:13:06;;;;;;;5.20;3.80;;;;;;;;;;137686;1272;22217;-85
2023/04/23 15:16:07;;;;;;;6.10;4.20;;;;;;;;;;137733;1270;22102;-85
2023/04/23 15:19:10;;;;;;;8.90;4.30;;;;;;;;;;137729;1272;22491;-86
2023/04/23 15:22:11;;;;;;;6.80;3.80;;;;;;;;;;137702;1272;22303;-85
2023/04/23 15:25:12;;;;;;;4.50;3.80;;;;;;;;;;137779;1265;22187;-85
2023/04/23 15:28:13;;;;;;;5.70;4.30;;;;;;;;;;137745;1272;22066;-84
2023/04/23 15:31:14;;;;;;;11.40;4.10;;;;;;;;;;137777;1272;22533;-85
2023/04/23 15:34:16;;;;;;;6.80;4.00;;;;;;;;;;137726;1272;22422;-87
2023/04/23 15:37:19;;;;;;;5.50;4.10;;;;;;;;;;137688;1272;22054;-86
2023/04/23 15:40:21;;;;;;;8.40;4.50;;;;;;;;;;137743;1272;22232;-85
2023/04/23 15:43:23;;;;;;;90.50;10.30;;;;;;;;;;137695;1272;22063;-82
2023/04/23 15:46:24;;;;;;;82.10;9.80;;;;;;;;;;137746;1272;22217;-84
2023/04/23 15:49:26;;;;;;;36.60;6.20;;;;;;;;;;137705;1272;22225;-84
2023/04/23 15:52:27;;;;;;;15.60;5.30;;;;;;;;;;137691;1272;22233;-85
2023/04/23 15:55:28;;;;;;;5.80;4.20;;;;;;;;;;137741;1272;22179;-84
2023/04/23 15:58:29;;;;;;;5.40;4.10;;;;;;;;;;137760;1272;22209;-85
2023/04/23 16:01:30;;;;;;;4.90;3.80;;;;;;;;;;137711;1272;22371;-85
2023/04/23 16:04:32;;;;;;;6.30;4.50;;;;;;;;;;137733;1272;22219;-84
2023/04/23 16:07:33;;;;;;;5.70;4.70;;;;;;;;;;137736;1272;22064;-84
2023/04/23 16:10:34;;;;;;;8.70;4.60;;;;;;;;;;137734;1272;22181;-83
2023/04/23 16:13:35;;;;;;;7.70;4.80;;;;;;;;;;137672;1272;22129;-83
2023/04/23 16:16:37;;;;;;;7.60;5.20;;;;;;;;;;137644;1272;22147;-83
2023/04/23 16:19:38;;;;;;;5.50;4.40;;;;;;;;;;137704;1272;22106;-82
2023/04/23 16:22:39;;;;;;;4.80;4.30;;;;;;;;;;137679;1272;22137;-82
2023/04/23 16:25:40;;;;;;;8.60;4.30;;;;;;;;;;137701;1272;22120;-84
2023/04/23 16:28:41;;;;;;;5.00;4.10;;;;;;;;;;137708;1272;22212;-83
2023/04/23 16:31:42;;;;;;;7.50;4.60;;;;;;;;;;137676;1272;22315;-83
2023/04/23 16:34:43;;;;;;;5.10;4.10;;;;;;;;;;137728;1272;22071;-83
2023/04/23 16:37:44;;;;;;;5.80;4.00;;;;;;;;;;137656;1272;22271;-84
2023/04/23 16:40:46;;;;;;;7.50;4.60;;;;;;;;;;137754;1272;22727;-83
2023/04/23 16:43:47;;;;;;;5.00;4.00;;;;;;;;;;137725;1268;22341;-84
2023/04/23 16:46:48;;;;;;;5.40;3.80;;;;;;;;;;137722;1268;22071;-83
2023/04/23 16:49:49;;;;;;;8.80;4.00;;;;;;;;;;137716;1268;22135;-83
2023/04/23 16:52:50;;;;;;;12.30;4.40;;;;;;;;;;137737;1272;22058;-82
2023/04/23 16:55:51;;;;;;;6.60;3.90;;;;;;;;;;137745;1272;22681;-82
2023/04/23 16:58:52;;;;;;;10.80;4.00;;;;;;;;;;137707;1272;22205;-82
2023/04/23 17:01:53;;;;;;;5.10;4.20;;;;;;;;;;137705;1272;22336;-82
2023/04/23 17:04:54;;;;;;;6.50;4.40;;;;;;;;;;137721;1272;22117;-83
2023/04/23 17:07:56;;;;;;;8.10;4.60;;;;;;;;;;137729;1268;22073;-82
2023/04/23 17:10:57;;;;;;;11.00;4.40;;;;;;;;;;137685;1272;22207;-84
2023/04/23 17:13:58;;;;;;;14.80;4.80;;;;;;;;;;137716;1272;22176;-84
2023/04/23 17:16:59;;;;;;;8.20;4.60;;;;;;;;;;137709;1272;22703;-82
2023/04/23 17:20:00;;;;;;;8.00;4.40;;;;;;;;;;137719;1272;22284;-84
2023/04/23 17:23:01;;;;;;;6.80;4.50;;;;;;;;;;137727;1272;22070;-83
2023/04/23 17:26:03;;;;;;;8.30;4.80;;;;;;;;;;137723;1272;22061;-82
2023/04/23 17:29:04;;;;;;;7.90;4.50;;;;;;;;;;137710;1272;22064;-85
2023/04/23 17:32:06;;;;;;;9.20;5.30;;;;;;;;;;137716;1272;22084;-85
2023/04/23 17:35:07;;;;;;;8.80;4.70;;;;;;;;;;137712;1272;22070;-84
2023/04/23 17:38:08;;;;;;;7.70;4.70;;;;;;;;;;138350;1252;22115;-84